createdAt,value
2017-10-13T00:00:34.416Z,101419.01
2017-10-13T00:03:01.870Z,101417.52
2017-10-13T00:05:29.335Z,101424.85
2017-10-13T00:07:56.878Z,101417.69
2017-10-13T00:10:24.361Z,101412.93
2017-10-13T00:12:51.806Z,101412.41
2017-10-13T00:15:19.267Z,101420.93
2017-10-13T00:17:46.805Z,101411.54
2017-10-13T00:20:14.265Z,101410.35
2017-10-13T00:22:41.718Z,101403.53
2017-10-13T00:25:09.191Z,101411.12
2017-10-13T00:27:36.633Z,101403.37
2017-10-13T00:30:04.099Z,101405.63
2017-10-13T00:32:31.545Z,101408.39
2017-10-13T00:34:59.365Z,101404.28
2017-10-13T00:37:26.816Z,101399.34
2017-10-13T00:39:54.303Z,101402.67
2017-10-13T00:42:21.765Z,101405.63
2017-10-13T00:44:49.198Z,101401.89
2017-10-13T00:47:16.673Z,101397.95
2017-10-13T00:49:44.155Z,101402.25
2017-10-13T00:52:11.624Z,101403.84
2017-10-13T00:54:39.172Z,101403.30
2017-10-13T00:57:06.676Z,101402.50
2017-10-13T00:59:34.129Z,101406.76
2017-10-13T01:02:01.620Z,101405.17
2017-10-13T01:04:29.075Z,101406.66
2017-10-13T01:06:56.657Z,101411.37
2017-10-13T01:09:24.129Z,101405.45
2017-10-13T01:11:51.600Z,101404.09
2017-10-13T01:14:19.056Z,101404.64
2017-10-13T01:16:46.587Z,101404.80
2017-10-13T01:19:14.036Z,101405.95
2017-10-13T01:21:41.495Z,101408.70
2017-10-13T01:24:08.967Z,101408.50
2017-10-13T01:26:36.443Z,101398.55
2017-10-13T01:29:03.925Z,101399.68
2017-10-13T01:31:31.382Z,101393.70
2017-10-13T01:33:58.879Z,101390.67
2017-10-13T01:36:26.335Z,101390.28
2017-10-13T01:38:53.893Z,101394.94
2017-10-13T01:41:21.355Z,101393.54
2017-10-13T01:43:48.850Z,101389.05
2017-10-13T01:46:16.365Z,101398.84
2017-10-13T01:48:44.795Z,101394.80
2017-10-13T01:51:12.264Z,101395.57
2017-10-13T01:53:39.725Z,101394.17
2017-10-13T01:56:07.206Z,101395.66
2017-10-13T01:58:34.672Z,101397.68
2017-10-13T02:01:02.161Z,101396.14
2017-10-13T02:03:29.693Z,101394.14
2017-10-13T02:05:57.168Z,101393.84
2017-10-13T02:08:24.624Z,101397.02
2017-10-13T02:10:52.105Z,101400.88
2017-10-13T02:13:19.651Z,101404.37
2017-10-13T02:15:47.120Z,101407.19
2017-10-13T02:18:14.639Z,101408.31
2017-10-13T02:20:42.121Z,101402.69
2017-10-13T02:23:09.570Z,101411.16
2017-10-13T02:25:37.021Z,101416.98
2017-10-13T02:28:04.528Z,101408.54
2017-10-13T02:30:32.016Z,101408.85
2017-10-13T02:32:59.574Z,101412.72
2017-10-13T02:35:27.036Z,101416.95
2017-10-13T02:37:54.590Z,101419.16
2017-10-13T02:40:22.045Z,101418.30
2017-10-13T02:42:49.534Z,101415.91
2017-10-13T02:45:16.994Z,101415.39
2017-10-13T02:47:44.523Z,101417.17
2017-10-13T02:50:11.977Z,101415.02
2017-10-13T02:52:39.443Z,101421.23
2017-10-13T02:55:06.993Z,101425.26
2017-10-13T02:57:34.457Z,101423.55
2017-10-13T03:00:01.936Z,101427.13
2017-10-13T03:02:29.389Z,101423.87
2017-10-13T03:04:56.862Z,101420.00
2017-10-13T03:07:24.388Z,101424.25
2017-10-13T03:09:53.382Z,101417.58
2017-10-13T03:12:20.841Z,101411.41
2017-10-13T03:14:48.306Z,101418.25
2017-10-13T03:17:15.844Z,101420.43
2017-10-13T03:19:43.338Z,101420.11
2017-10-13T03:22:10.856Z,101423.23
2017-10-13T03:24:38.337Z,101426.20
2017-10-13T03:27:05.798Z,101424.02
2017-10-13T03:29:34.248Z,101427.63
2017-10-13T03:32:01.718Z,101422.72
2017-10-13T03:34:29.160Z,101420.31
2017-10-13T03:36:56.725Z,101423.92
2017-10-13T03:39:24.176Z,101424.72
2017-10-13T03:41:51.681Z,101425.25
2017-10-13T03:44:19.131Z,101426.22
2017-10-13T03:46:46.602Z,101424.97
2017-10-13T03:49:14.067Z,101425.72
2017-10-13T03:51:41.569Z,101427.19
2017-10-13T03:54:09.020Z,101432.44
2017-10-13T03:56:36.499Z,101430.33
2017-10-13T03:59:03.952Z,101429.97
2017-10-13T04:01:31.430Z,101436.61
2017-10-13T04:03:58.884Z,101435.64
2017-10-13T04:06:26.331Z,101427.23
2017-10-13T04:08:53.905Z,101432.93
2017-10-13T04:11:21.437Z,101430.34
2017-10-13T04:13:48.921Z,101435.77
2017-10-13T04:16:16.438Z,101432.69
2017-10-13T04:18:44.002Z,101433.53
2017-10-13T04:21:11.460Z,101434.00
2017-10-13T04:23:38.956Z,101436.17
2017-10-13T04:26:06.399Z,101431.33
2017-10-13T04:28:33.868Z,101428.56
2017-10-13T04:31:01.320Z,101423.63
2017-10-13T04:33:28.792Z,101423.63
2017-10-13T04:35:56.297Z,101427.13
2017-10-13T04:38:23.772Z,101430.30
2017-10-13T04:40:51.221Z,101435.55
2017-10-13T04:43:18.710Z,101434.28
2017-10-13T04:45:46.166Z,101438.64
2017-10-13T04:48:13.655Z,101443.05
2017-10-13T04:50:41.141Z,101449.73
2017-10-13T04:53:08.601Z,101442.64
2017-10-13T04:55:36.165Z,101441.30
2017-10-13T04:58:03.621Z,101446.59
2017-10-13T05:00:31.172Z,101444.80
2017-10-13T05:02:58.628Z,101455.06
2017-10-13T05:05:26.095Z,101452.93
2017-10-13T05:07:53.568Z,101452.97
2017-10-13T05:10:21.041Z,101455.66
2017-10-13T05:12:48.497Z,101451.67
2017-10-13T05:15:16.021Z,101448.62
2017-10-13T05:17:43.605Z,101450.87
2017-10-13T05:20:11.047Z,101453.54
2017-10-13T05:22:38.576Z,101456.66
2017-10-13T05:25:06.024Z,101458.92
2017-10-13T05:27:33.592Z,101453.19
2017-10-13T05:30:01.040Z,101457.17
2017-10-13T05:32:28.516Z,101463.41
2017-10-13T05:34:55.962Z,101457.69
2017-10-13T05:37:23.434Z,101450.16
2017-10-13T05:39:50.891Z,101460.85
2017-10-13T05:42:18.452Z,101458.64
2017-10-13T05:44:45.899Z,101465.24
2017-10-13T05:47:13.368Z,101469.26
2017-10-13T05:49:40.832Z,101470.59
2017-10-13T05:52:08.341Z,101471.07
2017-10-13T05:54:35.799Z,101478.11
2017-10-13T05:57:03.281Z,101472.33
2017-10-13T05:59:30.752Z,101472.73
2017-10-13T06:01:58.290Z,101474.88
2017-10-13T06:04:25.848Z,101472.63
2017-10-13T06:06:53.315Z,101480.99
2017-10-13T06:09:20.776Z,101473.03
2017-10-13T06:11:48.324Z,101475.09
2017-10-13T06:14:15.886Z,101474.20
2017-10-13T06:16:43.444Z,101477.59
2017-10-13T06:19:10.998Z,101485.05
2017-10-13T06:21:38.557Z,101476.64
2017-10-13T06:24:06.039Z,101478.83
2017-10-13T06:26:33.505Z,101486.23
2017-10-13T06:29:00.989Z,101488.29
2017-10-13T06:31:28.456Z,101480.67
2017-10-13T06:33:56.073Z,101492.91
2017-10-13T06:36:23.546Z,101495.83
2017-10-13T06:38:51.037Z,101489.92
2017-10-13T06:41:18.501Z,101490.55
2017-10-13T06:43:45.975Z,101490.57
2017-10-13T06:46:13.427Z,101490.05
2017-10-13T06:48:40.923Z,101493.06
2017-10-13T06:51:08.380Z,101489.74
2017-10-13T06:53:35.860Z,101497.16
2017-10-13T06:56:03.361Z,101495.22
2017-10-13T06:58:30.844Z,101499.45
2017-10-13T07:00:58.313Z,101515.67
2017-10-13T07:03:25.795Z,101518.98
2017-10-13T07:05:53.248Z,101511.13
2017-10-13T07:08:20.745Z,101512.22
2017-10-13T07:10:48.309Z,101513.76
2017-10-13T07:13:15.803Z,101498.86
2017-10-13T07:15:43.288Z,101504.39
2017-10-13T07:18:10.774Z,101495.84
2017-10-13T07:20:38.236Z,101487.45
2017-10-13T07:23:05.798Z,101498.00
2017-10-13T07:25:33.272Z,101496.20
2017-10-13T07:28:00.769Z,101498.17
2017-10-13T07:30:28.263Z,101494.80
2017-10-13T07:32:55.745Z,101488.72
2017-10-13T07:35:23.206Z,101488.70
2017-10-13T07:37:50.706Z,101494.31
2017-10-13T07:40:18.181Z,101496.64
2017-10-13T07:42:45.648Z,101490.42
2017-10-13T07:45:13.211Z,101492.41
2017-10-13T07:47:40.686Z,101491.66
2017-10-13T07:50:08.167Z,101500.55
2017-10-13T07:52:35.622Z,101485.59
2017-10-13T07:55:03.093Z,101484.81
2017-10-13T07:57:30.584Z,101482.06
2017-10-13T07:59:58.153Z,101482.87
2017-10-13T08:02:25.709Z,101476.92
2017-10-13T08:04:53.259Z,101477.70
2017-10-13T08:07:20.825Z,101473.76
2017-10-13T08:09:48.321Z,101487.95
2017-10-13T08:12:15.788Z,101480.16
2017-10-13T08:14:43.268Z,101491.92
2017-10-13T08:17:10.745Z,101500.09
2017-10-13T08:19:38.229Z,101509.81
2017-10-13T08:22:05.692Z,101512.14
2017-10-13T08:24:33.173Z,101511.87
2017-10-13T08:27:00.628Z,101515.56
2017-10-13T08:29:28.112Z,101519.20
2017-10-13T08:31:55.621Z,101522.61
2017-10-13T08:34:23.161Z,101524.67
2017-10-13T08:36:50.623Z,101528.60
2017-10-13T08:39:18.109Z,101527.77
2017-10-13T08:41:45.653Z,101528.56
2017-10-13T08:44:13.180Z,101526.56
2017-10-13T08:46:40.744Z,101527.02
2017-10-13T08:49:08.299Z,101538.06
2017-10-13T08:51:35.811Z,101534.13
2017-10-13T08:54:03.282Z,101536.66
2017-10-13T08:56:30.796Z,101539.66
2017-10-13T08:58:58.332Z,101539.44
2017-10-13T09:01:25.828Z,101545.30
2017-10-13T09:03:53.353Z,101544.05
2017-10-13T09:06:20.844Z,101542.48
2017-10-13T09:08:48.300Z,101546.48
2017-10-13T09:11:15.775Z,101543.37
2017-10-13T09:13:43.237Z,101549.06
2017-10-13T09:16:10.729Z,101548.08
2017-10-13T09:18:38.225Z,101545.69
2017-10-13T09:21:05.703Z,101553.98
2017-10-13T09:23:33.178Z,101558.25
2017-10-13T09:26:00.658Z,101558.75
2017-10-13T09:28:28.148Z,101556.28
2017-10-13T09:30:55.645Z,101563.80
2017-10-13T09:33:23.108Z,101552.59
2017-10-13T09:35:50.598Z,101554.66
2017-10-13T09:38:18.095Z,101555.53
2017-10-13T09:40:45.579Z,101554.46
2017-10-13T09:43:13.039Z,101544.43
2017-10-13T09:45:40.516Z,101548.09
2017-10-13T09:48:07.988Z,101549.66
2017-10-13T09:50:35.475Z,101557.48
2017-10-13T09:53:02.937Z,101548.61
2017-10-13T09:55:30.424Z,101552.91
2017-10-13T09:57:57.887Z,101549.97
2017-10-13T10:00:25.406Z,101545.72
2017-10-13T10:02:52.863Z,101545.30
2017-10-13T10:05:20.320Z,101540.83
2017-10-13T10:07:47.800Z,101545.02
2017-10-13T10:10:15.269Z,101544.37
2017-10-13T10:12:42.792Z,101537.27
2017-10-13T10:15:10.260Z,101530.17
2017-10-13T10:17:37.755Z,101523.55
2017-10-13T10:20:05.252Z,101515.83
2017-10-13T10:22:32.773Z,101512.06
2017-10-13T10:25:00.259Z,101511.02
2017-10-13T10:27:27.788Z,101516.47
2017-10-13T10:29:55.349Z,101511.29
2017-10-13T10:32:22.904Z,101511.14
2017-10-13T10:34:50.361Z,101516.17
2017-10-13T10:37:17.856Z,101508.22
2017-10-13T10:39:45.381Z,101509.74
2017-10-13T10:42:12.890Z,101515.13
2017-10-13T10:44:40.347Z,101520.52
2017-10-13T10:47:07.810Z,101511.41
2017-10-13T10:49:35.305Z,101510.10
2017-10-13T10:52:02.785Z,101508.53
2017-10-13T10:54:30.300Z,101505.58
2017-10-13T10:56:57.756Z,101499.20
2017-10-13T10:59:25.231Z,101492.91
2017-10-13T11:01:52.718Z,101495.12
2017-10-13T11:04:20.196Z,101487.77
2017-10-13T11:06:47.702Z,101493.14
2017-10-13T11:09:15.262Z,101486.42
2017-10-13T11:11:42.708Z,101486.02
2017-10-13T11:14:10.175Z,101484.56
2017-10-13T11:16:37.741Z,101483.95
2017-10-13T11:19:05.212Z,101486.21
2017-10-13T11:21:32.750Z,101484.46
2017-10-13T11:24:00.238Z,101485.10
2017-10-13T11:26:27.772Z,101487.87
2017-10-13T11:28:55.328Z,101490.58
2017-10-13T11:31:22.903Z,101489.08
2017-10-13T11:33:50.443Z,101488.80
2017-10-13T11:36:17.904Z,101481.50
2017-10-13T11:38:45.388Z,101482.27
2017-10-13T11:41:12.848Z,101481.08
2017-10-13T11:43:40.321Z,101473.37
2017-10-13T11:46:07.780Z,101476.31
2017-10-13T11:48:35.287Z,101470.62
2017-10-13T11:51:02.749Z,101478.82
2017-10-13T11:53:30.238Z,101475.41
2017-10-13T11:55:57.689Z,101475.14
2017-10-13T11:58:25.173Z,101472.83
2017-10-13T12:00:52.624Z,101476.45
2017-10-13T12:03:20.099Z,101475.98
2017-10-13T12:05:47.548Z,101473.88
2017-10-13T12:08:15.040Z,101471.22
2017-10-13T12:10:42.504Z,101486.47
2017-10-13T12:13:09.960Z,101475.69
2017-10-13T12:15:37.503Z,101479.62
2017-10-13T12:18:04.956Z,101475.47
2017-10-13T12:20:32.427Z,101476.09
2017-10-13T12:22:59.879Z,101477.28
2017-10-13T12:25:27.348Z,101474.19
2017-10-13T12:27:54.893Z,101472.58
2017-10-13T12:30:22.379Z,101468.45
2017-10-13T12:32:49.847Z,101478.05
2017-10-13T12:35:17.338Z,101478.91
2017-10-13T12:37:44.794Z,101475.11
2017-10-13T12:40:12.277Z,101475.89
2017-10-13T12:42:39.736Z,101474.33
2017-10-13T12:45:07.213Z,101477.70
2017-10-13T12:47:34.671Z,101479.14
2017-10-13T12:50:02.213Z,101476.87
2017-10-13T12:52:29.818Z,101478.40
2017-10-13T12:54:57.297Z,101477.23
2017-10-13T12:57:24.747Z,101473.06
2017-10-13T12:59:52.205Z,101471.83
2017-10-13T13:02:19.680Z,101469.77
2017-10-13T13:04:47.144Z,101470.65
2017-10-13T13:07:14.709Z,101468.06
2017-10-13T13:09:42.267Z,101468.17
2017-10-13T13:12:09.828Z,101473.27
2017-10-13T13:14:37.312Z,101473.47
2017-10-13T13:17:04.801Z,101471.88
2017-10-13T13:19:32.313Z,101470.48
2017-10-13T13:21:59.793Z,101466.23
2017-10-13T13:24:27.248Z,101475.79
2017-10-13T13:26:54.726Z,101467.83
2017-10-13T13:29:22.204Z,101472.57
2017-10-13T13:31:49.685Z,101470.24
2017-10-13T13:34:17.139Z,101474.48
2017-10-13T13:36:44.619Z,101470.27
2017-10-13T13:39:12.094Z,101467.60
2017-10-13T13:41:39.568Z,101469.90
2017-10-13T13:44:07.020Z,101470.13
2017-10-13T13:46:34.484Z,101467.34
2017-10-13T13:49:01.957Z,101467.45
2017-10-13T13:51:29.429Z,101462.27
2017-10-13T13:53:56.893Z,101465.78
2017-10-13T13:56:24.420Z,101461.13
2017-10-13T13:58:51.872Z,101456.84
2017-10-13T14:01:19.376Z,101458.33
2017-10-13T14:03:46.832Z,101458.47
2017-10-13T14:06:14.331Z,101446.16
2017-10-13T14:08:41.794Z,101444.70
2017-10-13T14:11:09.296Z,101443.94
2017-10-13T14:13:36.741Z,101449.64
2017-10-13T14:16:04.240Z,101447.27
2017-10-13T14:18:31.696Z,101444.14
2017-10-13T14:20:59.172Z,101448.38
2017-10-13T14:23:26.679Z,101446.45
2017-10-13T14:25:54.162Z,101441.70
2017-10-13T14:28:21.632Z,101444.03
2017-10-13T14:30:49.112Z,101443.56
2017-10-13T14:33:16.589Z,101443.31
2017-10-13T14:35:44.087Z,101444.13
2017-10-13T14:38:11.550Z,101443.29
2017-10-13T14:40:39.028Z,101444.54
2017-10-13T14:43:06.505Z,101442.91
2017-10-13T14:45:33.994Z,101438.80
2017-10-13T14:48:01.476Z,101441.69
2017-10-13T14:50:28.935Z,101438.22
2017-10-13T14:52:56.417Z,101435.52
2017-10-13T14:55:23.895Z,101436.53
2017-10-13T14:57:51.384Z,101433.64
2017-10-13T15:00:18.934Z,101440.86
2017-10-13T15:02:46.409Z,101438.05
2017-10-13T15:05:13.935Z,101437.88
2017-10-13T15:07:41.528Z,101438.84
2017-10-13T15:10:08.986Z,101435.94
2017-10-13T15:12:36.480Z,101440.61
2017-10-13T15:15:03.973Z,101438.31
2017-10-13T15:17:31.448Z,101440.80
2017-10-13T15:19:58.916Z,101437.78
2017-10-13T15:22:26.397Z,101436.50
2017-10-13T15:24:59.595Z,101435.63
2017-10-13T15:41:06.954Z,101430.44
2017-10-13T15:43:40.141Z,101425.48
2017-10-13T15:46:13.155Z,101430.25
2017-10-13T15:48:40.642Z,101425.30
2017-10-13T15:54:13.046Z,101425.34
2017-10-13T15:56:40.659Z,101420.35
2017-10-13T15:59:08.178Z,101434.30
2017-10-13T16:01:35.628Z,101428.62
2017-10-13T16:04:03.177Z,101427.73
2017-10-13T16:06:30.636Z,101431.81
2017-10-13T16:08:58.192Z,101428.89
2017-10-13T16:11:25.754Z,101425.91
2017-10-13T16:13:53.225Z,101428.28
2017-10-13T16:16:20.689Z,101431.20
2017-10-13T16:18:48.186Z,101433.64
2017-10-13T16:21:15.686Z,101430.33
2017-10-13T16:23:43.240Z,101431.57
2017-10-13T16:26:10.748Z,101438.85
2017-10-13T16:28:38.257Z,101432.99
2017-10-13T16:31:05.721Z,101441.25
2017-10-13T16:33:33.204Z,101438.47
2017-10-13T16:36:00.724Z,101437.20
2017-10-13T16:38:28.202Z,101437.42
2017-10-13T16:40:55.680Z,101445.73
2017-10-13T16:43:23.127Z,101441.81
2017-10-13T16:45:50.604Z,101439.52
2017-10-13T16:48:18.068Z,101436.19
2017-10-13T16:50:45.542Z,101443.98
2017-10-13T16:53:13.076Z,101442.17
2017-10-13T16:55:40.623Z,101445.40
2017-10-13T16:58:08.073Z,101437.52
2017-10-13T17:00:35.545Z,101437.40
2017-10-13T17:03:03.146Z,101445.70
2017-10-13T17:05:30.722Z,101452.16
2017-10-13T17:07:58.181Z,101451.25
2017-10-13T17:10:25.650Z,101449.47
2017-10-13T17:12:53.119Z,101457.59
2017-10-13T17:15:20.650Z,101457.87
2017-10-13T17:17:48.114Z,101460.14
2017-10-13T17:20:15.689Z,101459.95
2017-10-13T17:22:43.148Z,101464.20
2017-10-13T17:25:10.627Z,101470.53
2017-10-13T17:27:38.112Z,101474.52
2017-10-13T17:30:05.586Z,101470.76
2017-10-13T17:32:33.065Z,101470.35
2017-10-13T17:35:00.551Z,101471.27
2017-10-13T17:37:28.008Z,101480.04
2017-10-13T17:39:55.510Z,101475.13
2017-10-13T17:42:22.965Z,101472.58
2017-10-13T17:44:50.452Z,101467.13
2017-10-13T17:47:17.916Z,101470.48
2017-10-13T17:49:45.470Z,101479.80
2017-10-13T17:52:12.916Z,101480.44
2017-10-13T17:54:40.391Z,101477.88
2017-10-13T17:57:07.846Z,101479.36
2017-10-13T17:59:35.328Z,101483.18
2017-10-13T18:02:02.791Z,101478.81
2017-10-13T18:04:30.264Z,101476.14
2017-10-13T18:06:57.719Z,101476.67
2017-10-13T18:09:25.237Z,101481.89
2017-10-13T18:11:52.698Z,101481.58
2017-10-13T18:14:20.218Z,101478.31
2017-10-13T18:16:47.778Z,101488.04
2017-10-13T18:19:15.228Z,101486.63
2017-10-13T18:21:42.699Z,101479.01
2017-10-13T18:24:10.242Z,101489.34
2017-10-13T18:26:37.733Z,101486.95
2017-10-13T18:29:05.274Z,101487.66
2017-10-13T18:31:32.748Z,101488.06
2017-10-13T18:34:00.277Z,101484.21
2017-10-13T18:36:27.752Z,101487.91
2017-10-13T18:38:55.213Z,101487.73
2017-10-13T18:41:22.753Z,101487.83
2017-10-13T18:43:50.313Z,101489.25
2017-10-13T18:46:17.790Z,101489.86
2017-10-13T18:48:45.259Z,101489.75
2017-10-13T18:51:12.751Z,101498.81
2017-10-13T18:53:40.248Z,101500.70
2017-10-13T18:56:07.725Z,101504.28
2017-10-13T18:58:35.176Z,101505.19
2017-10-13T19:01:02.705Z,101505.26
2017-10-13T19:03:30.262Z,101506.88
2017-10-13T19:05:57.727Z,101515.61
2017-10-13T19:08:25.194Z,101509.23
2017-10-13T19:10:52.659Z,101512.47
2017-10-13T19:13:20.129Z,101509.06
2017-10-13T19:15:47.604Z,101509.60
2017-10-13T19:18:15.052Z,101516.52
2017-10-13T19:20:42.524Z,101519.41
2017-10-13T19:23:09.976Z,101524.34
2017-10-13T19:25:37.453Z,101527.26
2017-10-13T19:28:04.904Z,101527.77
2017-10-13T19:30:32.383Z,101535.05
2017-10-13T19:32:59.837Z,101530.20
2017-10-13T19:35:27.308Z,101534.22
2017-10-13T19:37:54.868Z,101533.80
2017-10-13T19:40:22.424Z,101530.89
2017-10-13T19:42:49.976Z,101532.23
2017-10-13T19:45:17.448Z,101535.86
2017-10-13T19:47:44.899Z,101532.28
2017-10-13T19:50:12.384Z,101536.22
2017-10-13T19:52:39.841Z,101542.14
2017-10-13T19:55:07.320Z,101541.44
2017-10-13T19:57:34.799Z,101536.41
2017-10-13T20:00:02.258Z,101546.09
2017-10-13T20:02:29.750Z,101542.83
2017-10-13T20:04:57.214Z,101544.72
2017-10-13T20:07:24.693Z,101540.03
2017-10-13T20:09:52.157Z,101541.94
2017-10-13T20:12:19.637Z,101536.72
2017-10-13T20:14:47.102Z,101537.44
2017-10-13T20:17:14.600Z,101544.80
2017-10-13T20:19:42.063Z,101537.16
2017-10-13T20:22:09.545Z,101541.02
2017-10-13T20:24:37.014Z,101540.87
2017-10-13T20:27:04.498Z,101537.38
2017-10-13T20:29:31.961Z,101532.06
2017-10-13T20:31:59.452Z,101530.16
2017-10-13T20:34:27.100Z,101537.61
2017-10-13T20:36:54.589Z,101537.84
2017-10-13T20:39:22.088Z,101537.07
2017-10-13T20:41:49.597Z,101536.11
2017-10-13T20:44:17.050Z,101537.36
2017-10-13T20:46:44.534Z,101545.02
2017-10-13T20:49:11.989Z,101535.59
2017-10-13T20:51:39.463Z,101538.94
2017-10-13T20:54:06.911Z,101538.85
2017-10-13T20:56:34.398Z,101536.94
2017-10-13T20:59:01.952Z,101545.06
2017-10-13T21:01:29.458Z,101538.77
2017-10-13T21:03:56.919Z,101542.92
2017-10-13T21:06:24.400Z,101541.66
2017-10-13T21:08:51.874Z,101532.52
2017-10-13T21:11:19.345Z,101536.73
2017-10-13T21:13:46.891Z,101536.30
2017-10-13T21:16:14.368Z,101542.06
2017-10-13T21:18:41.836Z,101537.72
2017-10-13T21:21:09.309Z,101532.91
2017-10-13T21:23:36.785Z,101534.22
2017-10-13T21:26:04.246Z,101545.84
2017-10-13T21:28:31.720Z,101543.31
2017-10-13T21:30:59.173Z,101541.07
2017-10-13T21:33:26.648Z,101545.55
2017-10-13T21:35:54.100Z,101543.35
2017-10-13T21:38:21.576Z,101550.00
2017-10-13T21:40:49.023Z,101552.64
2017-10-13T21:43:16.497Z,101556.73
2017-10-13T21:45:43.953Z,101554.09
2017-10-13T21:48:11.439Z,101555.34
2017-10-13T21:50:38.897Z,101560.31
2017-10-13T21:53:06.410Z,101563.05
2017-10-13T21:55:33.955Z,101567.98
2017-10-13T21:58:01.444Z,101563.10
2017-10-13T22:00:28.911Z,101564.50
2017-10-13T22:02:56.442Z,101570.29
2017-10-13T22:05:23.997Z,101572.48
2017-10-13T22:07:51.557Z,101568.95
2017-10-13T22:10:19.023Z,101575.70
2017-10-13T22:12:46.540Z,101576.31
2017-10-13T22:15:14.004Z,101574.48
2017-10-13T22:17:41.484Z,101574.07
2017-10-13T22:20:08.950Z,101582.87
2017-10-13T22:22:36.446Z,101589.63
2017-10-13T22:25:03.904Z,101588.23
2017-10-13T22:27:31.405Z,101579.35
2017-10-13T22:29:58.995Z,101584.67
2017-10-13T22:32:26.481Z,101583.36
2017-10-13T22:34:53.956Z,101580.69
2017-10-13T22:37:21.447Z,101582.51
2017-10-13T22:39:48.905Z,101583.37
2017-10-13T22:42:16.460Z,101576.37
2017-10-13T22:44:43.954Z,101576.37
2017-10-13T22:47:11.425Z,101583.42
2017-10-13T22:49:38.908Z,101583.05
2017-10-13T22:52:06.369Z,101581.81
2017-10-13T22:54:33.847Z,101587.22
2017-10-13T22:57:01.319Z,101587.18
2017-10-13T22:59:28.832Z,101587.62
2017-10-13T23:01:56.312Z,101588.05
2017-10-13T23:04:23.788Z,101586.34
2017-10-13T23:06:51.326Z,101593.11
2017-10-13T23:09:18.841Z,101593.49
2017-10-13T23:11:46.300Z,101596.20
2017-10-13T23:14:13.805Z,101593.52
2017-10-13T23:16:41.268Z,101602.80
2017-10-13T23:19:08.752Z,101600.66
2017-10-13T23:21:36.215Z,101607.27
2017-10-13T23:24:03.699Z,101605.05
2017-10-13T23:26:31.174Z,101604.60
2017-10-13T23:28:58.660Z,101601.91
2017-10-13T23:31:26.129Z,101606.05
2017-10-13T23:33:53.622Z,101597.84
2017-10-13T23:36:21.075Z,101601.20
2017-10-13T23:38:48.580Z,101604.72
2017-10-13T23:41:16.118Z,101598.89
2017-10-13T23:43:43.596Z,101598.97
2017-10-13T23:46:11.056Z,101604.38
2017-10-13T23:48:38.544Z,101603.54
2017-10-13T23:51:06.052Z,101604.03
2017-10-13T23:53:33.532Z,101604.91
2017-10-13T23:56:01.064Z,101602.66
2017-10-13T23:58:28.552Z,101606.61
